Archival Weather

Chicago O'Hare International

Chicago, Illinois (KORD)

Report from: Sunday, November 19, 2023 1:51 AM CST
Current time: Sunday, February 25, 2024 2:58 PM CST

Current weather – Weather history – Daily summaries
Weather forecast

Temperature4.4°C (39.9°F)
Wind chill2.6°C (36.7°F)
Dew point-2.8°C (27.0°F)
Winds 4 kts (2.1 m/s, 4.6 mph) West (270°)
Visibility10 mi. (16.1 km)
Clouds Sky clear
Altimeter29.98 in.Hg (1015 mB)
Relative humidity59 %
Density altitude-1,285 ft. (-392 m)
Sea-level pressure101.6 kPa (1016 mB, 29.99 in.Hg)
Remarks Automated weather observing station with precipitation discriminator
Flight conditions Visual Meteorological Conditions
Raw dataKORD 190751Z 27004KT 10SM CLR 04/M03 A2998 RMK AO2 SLP156 T00441028
An error has occurred. This application may no longer respond until reloaded. Reload 🗙